This is the latest recevied weather packets stored in our database for station/object N7WLC. If no packets are shown the sender has not sent any weather packets the latest 10 day(s).
| Time | Temp. | Humidity | Pressure | Rain* | Wind** | Luminosity | Snow |
|---|---|---|---|---|---|---|---|
| 1777844906 | 17.78° C | 59% | 1013.9 hPa | 0 mm | 0.89 m/s, 253° | - | - |
| 1777843106 | 16.67° C | 62% | 1013.8 hPa | 0 mm | 0 m/s | - | - |
| 1777841305 | 16.67° C | 65% | 1014 hPa | 0 mm | 0 m/s | - | - |
| 1777839505 | 16.67° C | 67% | 1014 hPa | 0 mm | 0.89 m/s, 243° | - | - |
| 1777837705 | 17.22° C | 67% | 1014.2 hPa | 0 mm | 0 m/s | - | - |
| 1777835905 | 16.67° C | 67% | 1014.1 hPa | 0 mm | 0 m/s | - | - |
| 1777834104 | 17.22° C | 62% | 1014.3 hPa | 0 mm | 0.89 m/s, 196° | - | - |
| 1777832305 | 16.67° C | 67% | 1014.6 hPa | 0 mm | 0 m/s | - | - |
| 1777830504 | 15.56° C | 72% | 1014.6 hPa | 0 mm | 0.45 m/s, 250° | - | - |
| 1777828704 | 15° C | 73% | 1014.7 hPa | 0 mm | 0 m/s | - | - |
| 1777826905 | 15° C | 74% | 1014.6 hPa | 0 mm | 0.45 m/s, 245° | - | - |
| 1777825105 | 15° C | 74% | 1014 hPa | 0 mm | 0.45 m/s, 263° | - | - |
| 1777823304 | 14.44° C | 77% | 1014 hPa | 0 mm | 0 m/s | - | - |
| 1777821505 | 13.89° C | 77% | 1014 hPa | 0 mm | 0.45 m/s, 267° | - | - |
| 1777819705 | 13.89° C | 80% | 1013.6 hPa | 0 mm | 0 m/s | - | - |
| 1777817904 | 13.33° C | 86% | 1013.2 hPa | 0 mm | 0 m/s | - | - |
| 1777816105 | 12.78° C | 89% | 1013 hPa | 0 mm | 0 m/s | - | - |
| 1777814305 | 12.78° C | 94% | 1012.6 hPa | 0 mm | 0 m/s | - | - |
| 1777812505 | 12.78° C | 95% | 1012.5 hPa | 0 mm | 0 m/s | - | - |
| 1777810704 | 12.78° C | 94% | 1012.4 hPa | 0 mm | 0 m/s | - | - |
| 1777808905 | 12.78° C | 95% | 1012.6 hPa | 0 mm | 0 m/s | - | - |
| 1777807104 | 12.78° C | 96% | 1012.7 hPa | 0 mm | 0 m/s | - | - |
| 1777805304 | 12.78° C | 96% | 1012.8 hPa | 0 mm | 0 m/s | - | - |
| 1777803505 | 12.78° C | 96% | 1012.6 hPa | 0 mm | 0 m/s | - | - |
| 1777801705 | 12.78° C | 96% | 1012.8 hPa | 0 mm | 0 m/s | - | - |
* Rain latest hour (hover to see other rain measurements)
** Current wind speed in m/s (hover to see current wind gust speed)